sensor_id;sensor_type;location;lat;lon;timestamp;P1;durP1;ratioP1;P2;durP2;ratioP2
79790;SDS011;69278;52.220;5.172;2023-08-12T00:01:33;5.72;;;2.70;;
79790;SDS011;69278;52.220;5.172;2023-08-12T00:04:00;8.38;;;3.00;;
79790;SDS011;69278;52.220;5.172;2023-08-12T00:06:26;6.97;;;3.28;;
79790;SDS011;69278;52.220;5.172;2023-08-12T00:08:54;6.55;;;2.83;;
79790;SDS011;69278;52.220;5.172;2023-08-12T00:11:20;7.20;;;2.73;;
79790;SDS011;69278;52.220;5.172;2023-08-12T00:13:47;6.18;;;2.85;;
79790;SDS011;69278;52.220;5.172;2023-08-12T00:16:13;5.20;;;2.75;;
79790;SDS011;69278;52.220;5.172;2023-08-12T00:18:40;5.05;;;2.85;;
79790;SDS011;69278;52.220;5.172;2023-08-12T00:21:07;6.65;;;3.13;;
79790;SDS011;69278;52.220;5.172;2023-08-12T00:23:39;6.10;;;3.00;;
79790;SDS011;69278;52.220;5.172;2023-08-12T00:26:07;5.72;;;3.00;;
79790;SDS011;69278;52.220;5.172;2023-08-12T00:28:34;5.60;;;3.00;;
79790;SDS011;69278;52.220;5.172;2023-08-12T00:31:00;8.50;;;3.55;;
79790;SDS011;69278;52.220;5.172;2023-08-12T00:33:27;6.20;;;3.35;;
79790;SDS011;69278;52.220;5.172;2023-08-12T00:35:53;7.20;;;3.50;;
79790;SDS011;69278;52.220;5.172;2023-08-12T00:38:20;9.20;;;3.20;;
79790;SDS011;69278;52.220;5.172;2023-08-12T00:40:47;6.20;;;3.05;;
79790;SDS011;69278;52.220;5.172;2023-08-12T00:43:13;5.90;;;3.10;;
79790;SDS011;69278;52.220;5.172;2023-08-12T00:45:40;5.35;;;3.22;;
79790;SDS011;69278;52.220;5.172;2023-08-12T00:48:07;6.97;;;3.13;;
79790;SDS011;69278;52.220;5.172;2023-08-12T00:50:39;5.90;;;2.85;;
79790;SDS011;69278;52.220;5.172;2023-08-12T00:53:07;8.50;;;4.20;;
79790;SDS011;69278;52.220;5.172;2023-08-12T00:55:35;6.85;;;3.38;;
79790;SDS011;69278;52.220;5.172;2023-08-12T00:58:02;11.50;;;3.70;;
79790;SDS011;69278;52.220;5.172;2023-08-12T01:00:30;8.23;;;3.43;;
79790;SDS011;69278;52.220;5.172;2023-08-12T01:02:58;7.15;;;3.78;;
79790;SDS011;69278;52.220;5.172;2023-08-12T01:05:26;7.20;;;3.75;;
79790;SDS011;69278;52.220;5.172;2023-08-12T01:07:53;7.10;;;4.03;;
79790;SDS011;69278;52.220;5.172;2023-08-12T01:10:20;7.57;;;3.17;;
79790;SDS011;69278;52.220;5.172;2023-08-12T01:12:57;10.73;;;4.10;;
79790;SDS011;69278;52.220;5.172;2023-08-12T01:15:33;7.57;;;3.95;;
79790;SDS011;69278;52.220;5.172;2023-08-12T01:18:00;8.10;;;4.10;;
79790;SDS011;69278;52.220;5.172;2023-08-12T01:20:28;8.38;;;4.05;;
79790;SDS011;69278;52.220;5.172;2023-08-12T01:22:57;7.05;;;3.65;;
79790;SDS011;69278;52.220;5.172;2023-08-12T01:25:35;14.30;;;4.23;;
79790;SDS011;69278;52.220;5.172;2023-08-12T01:28:02;9.35;;;3.72;;
79790;SDS011;69278;52.220;5.172;2023-08-12T01:30:29;8.75;;;4.32;;
79790;SDS011;69278;52.220;5.172;2023-08-12T01:33:10;9.98;;;4.45;;
79790;SDS011;69278;52.220;5.172;2023-08-12T01:36:04;9.70;;;4.38;;
79790;SDS011;69278;52.220;5.172;2023-08-12T01:38:35;11.53;;;4.47;;
79790;SDS011;69278;52.220;5.172;2023-08-12T01:41:04;12.90;;;4.60;;
79790;SDS011;69278;52.220;5.172;2023-08-12T01:43:35;10.05;;;4.53;;
79790;SDS011;69278;52.220;5.172;2023-08-12T01:46:02;8.80;;;3.58;;
79790;SDS011;69278;52.220;5.172;2023-08-12T01:48:28;9.57;;;5.00;;
79790;SDS011;69278;52.220;5.172;2023-08-12T01:50:55;12.93;;;6.20;;
79790;SDS011;69278;52.220;5.172;2023-08-12T01:53:21;12.48;;;6.07;;
79790;SDS011;69278;52.220;5.172;2023-08-12T01:55:48;8.70;;;4.15;;
79790;SDS011;69278;52.220;5.172;2023-08-12T01:58:15;9.88;;;4.50;;
79790;SDS011;69278;52.220;5.172;2023-08-12T02:00:42;7.45;;;4.65;;
79790;SDS011;69278;52.220;5.172;2023-08-12T02:03:08;10.17;;;4.70;;
79790;SDS011;69278;52.220;5.172;2023-08-12T02:05:36;8.95;;;4.85;;
79790;SDS011;69278;52.220;5.172;2023-08-12T02:08:06;9.82;;;4.75;;
79790;SDS011;69278;52.220;5.172;2023-08-12T02:10:33;10.75;;;4.30;;
79790;SDS011;69278;52.220;5.172;2023-08-12T02:13:00;8.07;;;3.78;;
79790;SDS011;69278;52.220;5.172;2023-08-12T02:15:26;10.07;;;4.20;;
79790;SDS011;69278;52.220;5.172;2023-08-12T02:17:52;8.57;;;3.63;;
79790;SDS011;69278;52.220;5.172;2023-08-12T02:20:19;8.48;;;4.00;;
79790;SDS011;69278;52.220;5.172;2023-08-12T02:22:45;7.35;;;3.60;;
79790;SDS011;69278;52.220;5.172;2023-08-12T02:25:12;9.52;;;4.60;;
79790;SDS011;69278;52.220;5.172;2023-08-12T02:27:38;7.60;;;4.43;;
79790;SDS011;69278;52.220;5.172;2023-08-12T02:30:05;11.52;;;4.72;;
79790;SDS011;69278;52.220;5.172;2023-08-12T02:32:32;9.40;;;4.70;;
79790;SDS011;69278;52.220;5.172;2023-08-12T02:34:59;8.48;;;4.53;;
79790;SDS011;69278;52.220;5.172;2023-08-12T02:37:25;8.18;;;3.78;;
79790;SDS011;69278;52.220;5.172;2023-08-12T02:39:52;8.07;;;4.40;;
79790;SDS011;69278;52.220;5.172;2023-08-12T02:42:18;7.63;;;3.80;;
79790;SDS011;69278;52.220;5.172;2023-08-12T02:44:44;8.27;;;4.43;;
79790;SDS011;69278;52.220;5.172;2023-08-12T02:47:11;9.70;;;4.35;;
79790;SDS011;69278;52.220;5.172;2023-08-12T02:49:38;8.45;;;4.03;;
79790;SDS011;69278;52.220;5.172;2023-08-12T02:52:04;8.60;;;4.07;;
79790;SDS011;69278;52.220;5.172;2023-08-12T02:54:31;7.82;;;4.32;;
79790;SDS011;69278;52.220;5.172;2023-08-12T02:56:57;11.43;;;5.15;;
79790;SDS011;69278;52.220;5.172;2023-08-12T02:59:24;10.57;;;4.75;;
79790;SDS011;69278;52.220;5.172;2023-08-12T03:01:51;13.15;;;6.18;;
79790;SDS011;69278;52.220;5.172;2023-08-12T03:04:18;10.57;;;4.60;;
79790;SDS011;69278;52.220;5.172;2023-08-12T03:06:45;10.00;;;4.60;;
79790;SDS011;69278;52.220;5.172;2023-08-12T03:09:11;11.95;;;5.35;;
79790;SDS011;69278;52.220;5.172;2023-08-12T03:11:38;12.05;;;6.40;;
79790;SDS011;69278;52.220;5.172;2023-08-12T03:14:04;8.55;;;4.57;;
79790;SDS011;69278;52.220;5.172;2023-08-12T03:16:31;15.33;;;5.57;;
79790;SDS011;69278;52.220;5.172;2023-08-12T03:18:57;9.90;;;4.82;;
79790;SDS011;69278;52.220;5.172;2023-08-12T03:21:23;12.38;;;6.82;;
79790;SDS011;69278;52.220;5.172;2023-08-12T03:23:50;10.95;;;4.47;;
79790;SDS011;69278;52.220;5.172;2023-08-12T03:26:16;8.82;;;4.78;;
79790;SDS011;69278;52.220;5.172;2023-08-12T03:28:43;9.37;;;4.60;;
79790;SDS011;69278;52.220;5.172;2023-08-12T03:31:09;14.90;;;5.70;;
79790;SDS011;69278;52.220;5.172;2023-08-12T03:33:36;9.90;;;5.75;;
79790;SDS011;69278;52.220;5.172;2023-08-12T03:36:02;13.82;;;6.22;;
79790;SDS011;69278;52.220;5.172;2023-08-12T03:38:29;10.35;;;5.25;;
79790;SDS011;69278;52.220;5.172;2023-08-12T03:40:56;16.93;;;7.50;;
79790;SDS011;69278;52.220;5.172;2023-08-12T03:43:22;12.57;;;6.88;;
79790;SDS011;69278;52.220;5.172;2023-08-12T03:45:49;10.63;;;5.75;;
79790;SDS011;69278;52.220;5.172;2023-08-12T03:48:15;12.10;;;5.28;;
79790;SDS011;69278;52.220;5.172;2023-08-12T03:50:42;12.70;;;6.20;;
79790;SDS011;69278;52.220;5.172;2023-08-12T03:53:08;12.03;;;6.13;;
79790;SDS011;69278;52.220;5.172;2023-08-12T03:55:35;11.88;;;6.75;;
79790;SDS011;69278;52.220;5.172;2023-08-12T03:58:02;9.38;;;5.15;;
79790;SDS011;69278;52.220;5.172;2023-08-12T04:00:28;11.85;;;5.28;;
79790;SDS011;69278;52.220;5.172;2023-08-12T04:02:55;16.00;;;6.03;;
79790;SDS011;69278;52.220;5.172;2023-08-12T04:05:22;10.20;;;5.57;;
79790;SDS011;69278;52.220;5.172;2023-08-12T04:07:48;12.98;;;7.68;;
79790;SDS011;69278;52.220;5.172;2023-08-12T04:10:15;10.60;;;5.32;;
79790;SDS011;69278;52.220;5.172;2023-08-12T04:12:42;13.55;;;7.45;;
79790;SDS011;69278;52.220;5.172;2023-08-12T04:15:09;8.98;;;5.05;;
79790;SDS011;69278;52.220;5.172;2023-08-12T04:17:36;16.60;;;7.83;;
79790;SDS011;69278;52.220;5.172;2023-08-12T04:20:03;12.77;;;7.55;;
79790;SDS011;69278;52.220;5.172;2023-08-12T04:22:32;13.88;;;7.60;;
79790;SDS011;69278;52.220;5.172;2023-08-12T04:25:00;11.45;;;6.40;;
79790;SDS011;69278;52.220;5.172;2023-08-12T04:27:27;13.63;;;7.80;;
79790;SDS011;69278;52.220;5.172;2023-08-12T04:29:53;14.80;;;7.60;;
79790;SDS011;69278;52.220;5.172;2023-08-12T04:32:20;8.93;;;5.07;;
79790;SDS011;69278;52.220;5.172;2023-08-12T04:34:46;13.68;;;6.93;;
79790;SDS011;69278;52.220;5.172;2023-08-12T04:37:12;13.77;;;7.30;;
79790;SDS011;69278;52.220;5.172;2023-08-12T04:39:39;12.93;;;5.70;;
79790;SDS011;69278;52.220;5.172;2023-08-12T04:42:06;12.50;;;6.00;;
79790;SDS011;69278;52.220;5.172;2023-08-12T04:44:33;11.57;;;6.35;;
79790;SDS011;69278;52.220;5.172;2023-08-12T04:46:59;13.48;;;7.53;;
79790;SDS011;69278;52.220;5.172;2023-08-12T04:49:25;11.32;;;6.05;;
79790;SDS011;69278;52.220;5.172;2023-08-12T04:51:52;11.63;;;6.88;;
79790;SDS011;69278;52.220;5.172;2023-08-12T04:54:19;11.47;;;6.00;;
79790;SDS011;69278;52.220;5.172;2023-08-12T04:56:45;10.90;;;6.22;;
79790;SDS011;69278;52.220;5.172;2023-08-12T04:59:12;12.52;;;6.50;;
79790;SDS011;69278;52.220;5.172;2023-08-12T05:01:38;14.50;;;6.70;;
79790;SDS011;69278;52.220;5.172;2023-08-12T05:04:23;11.52;;;6.40;;
79790;SDS011;69278;52.220;5.172;2023-08-12T05:06:50;10.13;;;5.60;;
79790;SDS011;69278;52.220;5.172;2023-08-12T05:09:16;17.45;;;8.38;;
79790;SDS011;69278;52.220;5.172;2023-08-12T05:11:43;9.20;;;5.55;;
79790;SDS011;69278;52.220;5.172;2023-08-12T05:14:09;10.77;;;6.28;;
79790;SDS011;69278;52.220;5.172;2023-08-12T05:16:36;14.73;;;7.85;;
79790;SDS011;69278;52.220;5.172;2023-08-12T05:19:02;11.23;;;6.07;;
79790;SDS011;69278;52.220;5.172;2023-08-12T05:21:29;11.93;;;6.03;;
79790;SDS011;69278;52.220;5.172;2023-08-12T05:23:55;13.23;;;6.60;;
79790;SDS011;69278;52.220;5.172;2023-08-12T05:26:22;11.05;;;6.60;;
79790;SDS011;69278;52.220;5.172;2023-08-12T05:29:06;12.73;;;6.60;;
79790;SDS011;69278;52.220;5.172;2023-08-12T05:31:32;11.03;;;4.97;;
79790;SDS011;69278;52.220;5.172;2023-08-12T05:33:59;10.07;;;5.93;;
79790;SDS011;69278;52.220;5.172;2023-08-12T05:36:26;13.70;;;7.10;;
79790;SDS011;69278;52.220;5.172;2023-08-12T05:38:52;14.93;;;7.07;;
79790;SDS011;69278;52.220;5.172;2023-08-12T05:41:19;13.15;;;7.82;;
79790;SDS011;69278;52.220;5.172;2023-08-12T05:43:46;10.03;;;5.37;;
79790;SDS011;69278;52.220;5.172;2023-08-12T05:46:14;14.82;;;7.25;;
79790;SDS011;69278;52.220;5.172;2023-08-12T05:48:41;14.43;;;7.30;;
79790;SDS011;69278;52.220;5.172;2023-08-12T05:51:07;12.70;;;6.90;;
79790;SDS011;69278;52.220;5.172;2023-08-12T05:53:33;12.98;;;8.13;;
79790;SDS011;69278;52.220;5.172;2023-08-12T05:56:00;9.83;;;5.53;;
79790;SDS011;69278;52.220;5.172;2023-08-12T05:58:27;13.73;;;7.68;;
79790;SDS011;69278;52.220;5.172;2023-08-12T06:00:53;15.23;;;7.80;;
79790;SDS011;69278;52.220;5.172;2023-08-12T06:03:20;12.18;;;6.32;;
79790;SDS011;69278;52.220;5.172;2023-08-12T06:05:46;13.52;;;7.53;;
79790;SDS011;69278;52.220;5.172;2023-08-12T06:08:13;11.57;;;6.47;;
79790;SDS011;69278;52.220;5.172;2023-08-12T06:10:40;13.32;;;6.80;;
79790;SDS011;69278;52.220;5.172;2023-08-12T06:13:07;14.07;;;7.70;;
79790;SDS011;69278;52.220;5.172;2023-08-12T06:15:33;13.77;;;6.90;;
79790;SDS011;69278;52.220;5.172;2023-08-12T06:18:00;15.35;;;8.00;;
79790;SDS011;69278;52.220;5.172;2023-08-12T06:20:27;13.30;;;6.30;;
79790;SDS011;69278;52.220;5.172;2023-08-12T06:22:55;14.35;;;7.85;;
79790;SDS011;69278;52.220;5.172;2023-08-12T06:25:22;11.18;;;6.43;;
79790;SDS011;69278;52.220;5.172;2023-08-12T06:27:48;10.75;;;6.22;;
79790;SDS011;69278;52.220;5.172;2023-08-12T06:30:15;9.90;;;5.93;;
79790;SDS011;69278;52.220;5.172;2023-08-12T06:32:41;11.60;;;6.67;;
79790;SDS011;69278;52.220;5.172;2023-08-12T06:35:08;8.40;;;5.28;;
79790;SDS011;69278;52.220;5.172;2023-08-12T06:37:35;13.30;;;5.35;;
79790;SDS011;69278;52.220;5.172;2023-08-12T06:40:02;7.13;;;4.90;;
79790;SDS011;69278;52.220;5.172;2023-08-12T06:42:29;10.70;;;7.07;;
79790;SDS011;69278;52.220;5.172;2023-08-12T06:44:57;10.83;;;6.37;;
79790;SDS011;69278;52.220;5.172;2023-08-12T06:47:24;8.88;;;5.55;;
79790;SDS011;69278;52.220;5.172;2023-08-12T06:49:54;9.02;;;5.35;;
79790;SDS011;69278;52.220;5.172;2023-08-12T06:52:21;9.73;;;5.30;;
79790;SDS011;69278;52.220;5.172;2023-08-12T06:54:47;7.32;;;4.95;;
79790;SDS011;69278;52.220;5.172;2023-08-12T06:57:14;7.37;;;4.60;;
79790;SDS011;69278;52.220;5.172;2023-08-12T06:59:40;10.10;;;4.20;;
79790;SDS011;69278;52.220;5.172;2023-08-12T07:02:07;7.35;;;4.20;;
79790;SDS011;69278;52.220;5.172;2023-08-12T07:04:33;6.38;;;3.97;;
79790;SDS011;69278;52.220;5.172;2023-08-12T07:07:00;7.50;;;3.80;;
79790;SDS011;69278;52.220;5.172;2023-08-12T07:09:26;5.70;;;3.20;;
79790;SDS011;69278;52.220;5.172;2023-08-12T07:11:53;6.97;;;3.15;;
79790;SDS011;69278;52.220;5.172;2023-08-12T07:14:19;5.20;;;3.30;;
79790;SDS011;69278;52.220;5.172;2023-08-12T07:16:46;5.43;;;3.38;;
79790;SDS011;69278;52.220;5.172;2023-08-12T07:19:12;4.43;;;2.83;;
79790;SDS011;69278;52.220;5.172;2023-08-12T07:21:42;4.30;;;2.37;;
79790;SDS011;69278;52.220;5.172;2023-08-12T07:24:08;5.30;;;2.80;;
79790;SDS011;69278;52.220;5.172;2023-08-12T07:26:35;9.18;;;3.30;;
79790;SDS011;69278;52.220;5.172;2023-08-12T07:29:01;5.93;;;2.88;;
79790;SDS011;69278;52.220;5.172;2023-08-12T07:31:28;6.25;;;3.15;;
79790;SDS011;69278;52.220;5.172;2023-08-12T07:33:54;4.87;;;3.17;;
79790;SDS011;69278;52.220;5.172;2023-08-12T07:36:21;4.60;;;3.20;;
79790;SDS011;69278;52.220;5.172;2023-08-12T07:38:48;5.35;;;3.20;;
79790;SDS011;69278;52.220;5.172;2023-08-12T07:41:15;4.53;;;2.90;;
79790;SDS011;69278;52.220;5.172;2023-08-12T07:43:41;4.63;;;2.90;;
79790;SDS011;69278;52.220;5.172;2023-08-12T07:46:07;4.60;;;2.70;;
79790;SDS011;69278;52.220;5.172;2023-08-12T07:48:35;5.47;;;3.08;;
79790;SDS011;69278;52.220;5.172;2023-08-12T07:51:02;5.15;;;3.33;;
79790;SDS011;69278;52.220;5.172;2023-08-12T07:53:29;4.15;;;2.70;;
79790;SDS011;69278;52.220;5.172;2023-08-12T07:55:55;4.80;;;2.88;;
79790;SDS011;69278;52.220;5.172;2023-08-12T07:58:22;4.57;;;2.87;;
79790;SDS011;69278;52.220;5.172;2023-08-12T08:00:51;4.78;;;2.85;;
79790;SDS011;69278;52.220;5.172;2023-08-12T08:03:19;3.17;;;2.20;;
79790;SDS011;69278;52.220;5.172;2023-08-12T08:05:46;3.10;;;2.00;;
79790;SDS011;69278;52.220;5.172;2023-08-12T08:08:13;2.50;;;1.85;;
79790;SDS011;69278;52.220;5.172;2023-08-12T08:10:40;3.20;;;2.10;;
79790;SDS011;69278;52.220;5.172;2023-08-12T08:13:06;2.88;;;1.90;;
79790;SDS011;69278;52.220;5.172;2023-08-12T08:15:32;2.75;;;1.83;;
79790;SDS011;69278;52.220;5.172;2023-08-12T08:17:59;2.72;;;1.63;;
79790;SDS011;69278;52.220;5.172;2023-08-12T08:20:27;2.88;;;1.70;;
79790;SDS011;69278;52.220;5.172;2023-08-12T08:22:54;2.80;;;1.50;;
79790;SDS011;69278;52.220;5.172;2023-08-12T08:25:23;2.08;;;1.50;;
79790;SDS011;69278;52.220;5.172;2023-08-12T08:27:50;2.33;;;1.60;;
79790;SDS011;69278;52.220;5.172;2023-08-12T08:30:16;2.65;;;1.45;;
79790;SDS011;69278;52.220;5.172;2023-08-12T08:32:43;3.28;;;1.80;;
79790;SDS011;69278;52.220;5.172;2023-08-12T08:35:09;2.93;;;1.40;;
79790;SDS011;69278;52.220;5.172;2023-08-12T08:37:36;3.75;;;1.45;;
79790;SDS011;69278;52.220;5.172;2023-08-12T08:40:02;4.78;;;1.40;;
79790;SDS011;69278;52.220;5.172;2023-08-12T08:42:29;3.72;;;1.30;;
79790;SDS011;69278;52.220;5.172;2023-08-12T08:44:57;4.50;;;1.48;;
79790;SDS011;69278;52.220;5.172;2023-08-12T08:47:27;3.60;;;1.20;;
79790;SDS011;69278;52.220;5.172;2023-08-12T08:49:54;4.35;;;1.52;;
79790;SDS011;69278;52.220;5.172;2023-08-12T08:52:22;2.85;;;1.30;;
79790;SDS011;69278;52.220;5.172;2023-08-12T08:54:52;3.47;;;1.20;;
79790;SDS011;69278;52.220;5.172;2023-08-12T08:57:19;3.10;;;1.55;;
79790;SDS011;69278;52.220;5.172;2023-08-12T08:59:53;4.37;;;1.30;;
79790;SDS011;69278;52.220;5.172;2023-08-12T09:02:22;3.05;;;1.30;;
79790;SDS011;69278;52.220;5.172;2023-08-12T09:04:50;5.07;;;1.40;;
79790;SDS011;69278;52.220;5.172;2023-08-12T09:07:17;5.97;;;1.60;;
79790;SDS011;69278;52.220;5.172;2023-08-12T09:09:45;2.92;;;1.20;;
79790;SDS011;69278;52.220;5.172;2023-08-12T09:12:15;6.27;;;2.17;;
79790;SDS011;69278;52.220;5.172;2023-08-12T09:14:43;4.80;;;1.60;;
79790;SDS011;69278;52.220;5.172;2023-08-12T09:17:10;4.25;;;1.55;;
79790;SDS011;69278;52.220;5.172;2023-08-12T09:19:36;4.10;;;1.58;;
79790;SDS011;69278;52.220;5.172;2023-08-12T09:22:04;5.15;;;1.75;;
79790;SDS011;69278;52.220;5.172;2023-08-12T09:24:35;4.37;;;1.80;;
79790;SDS011;69278;52.220;5.172;2023-08-12T09:27:02;3.47;;;1.60;;
79790;SDS011;69278;52.220;5.172;2023-08-12T09:29:29;4.68;;;1.70;;
79790;SDS011;69278;52.220;5.172;2023-08-12T09:34:51;5.88;;;1.60;;
79790;SDS011;69278;52.220;5.172;2023-08-12T09:37:19;6.53;;;1.53;;
79790;SDS011;69278;52.220;5.172;2023-08-12T09:39:47;4.93;;;1.63;;
79790;SDS011;69278;52.220;5.172;2023-08-12T09:42:15;5.22;;;1.52;;
79790;SDS011;69278;52.220;5.172;2023-08-12T09:44:42;5.70;;;1.95;;
79790;SDS011;69278;52.220;5.172;2023-08-12T09:47:09;6.03;;;2.30;;
79790;SDS011;69278;52.220;5.172;2023-08-12T09:49:36;5.63;;;1.60;;
79790;SDS011;69278;52.220;5.172;2023-08-12T09:52:04;9.00;;;1.73;;
79790;SDS011;69278;52.220;5.172;2023-08-12T09:54:33;5.60;;;1.70;;
79790;SDS011;69278;52.220;5.172;2023-08-12T09:57:04;5.57;;;1.50;;
79790;SDS011;69278;52.220;5.172;2023-08-12T09:59:35;5.15;;;1.70;;
79790;SDS011;69278;52.220;5.172;2023-08-12T10:02:04;3.93;;;1.70;;
79790;SDS011;69278;52.220;5.172;2023-08-12T10:04:40;8.32;;;1.95;;
79790;SDS011;69278;52.220;5.172;2023-08-12T10:07:10;7.15;;;1.50;;
79790;SDS011;69278;52.220;5.172;2023-08-12T10:09:39;4.63;;;1.50;;
79790;SDS011;69278;52.220;5.172;2023-08-12T10:12:06;4.82;;;1.80;;
79790;SDS011;69278;52.220;5.172;2023-08-12T10:14:33;4.97;;;1.40;;
79790;SDS011;69278;52.220;5.172;2023-08-12T10:17:00;8.40;;;1.90;;
79790;SDS011;69278;52.220;5.172;2023-08-12T10:19:31;4.00;;;1.60;;
79790;SDS011;69278;52.220;5.172;2023-08-12T10:21:59;4.38;;;1.80;;
79790;SDS011;69278;52.220;5.172;2023-08-12T10:24:30;5.68;;;1.88;;
79790;SDS011;69278;52.220;5.172;2023-08-12T10:26:58;4.47;;;1.80;;
79790;SDS011;69278;52.220;5.172;2023-08-12T10:29:25;7.72;;;1.90;;
79790;SDS011;69278;52.220;5.172;2023-08-12T10:31:51;8.00;;;1.95;;
79790;SDS011;69278;52.220;5.172;2023-08-12T10:34:19;4.47;;;1.83;;
79790;SDS011;69278;52.220;5.172;2023-08-12T10:36:46;8.55;;;2.35;;
79790;SDS011;69278;52.220;5.172;2023-08-12T10:39:27;6.07;;;2.10;;
79790;SDS011;69278;52.220;5.172;2023-08-12T10:41:57;6.25;;;2.17;;
79790;SDS011;69278;52.220;5.172;2023-08-12T10:44:28;5.80;;;1.80;;
79790;SDS011;69278;52.220;5.172;2023-08-12T10:47:09;4.75;;;1.38;;
79790;SDS011;69278;52.220;5.172;2023-08-12T10:49:48;5.18;;;1.45;;
79790;SDS011;69278;52.220;5.172;2023-08-12T10:52:28;5.67;;;1.50;;
79790;SDS011;69278;52.220;5.172;2023-08-12T10:57:49;5.45;;;1.48;;
79790;SDS011;69278;52.220;5.172;2023-08-12T11:00:25;6.35;;;1.60;;
79790;SDS011;69278;52.220;5.172;2023-08-12T11:02:53;3.60;;;1.40;;
79790;SDS011;69278;52.220;5.172;2023-08-12T11:05:23;5.57;;;1.70;;
79790;SDS011;69278;52.220;5.172;2023-08-12T11:07:57;5.75;;;2.05;;
79790;SDS011;69278;52.220;5.172;2023-08-12T11:10:29;4.32;;;1.42;;
79790;SDS011;69278;52.220;5.172;2023-08-12T11:13:00;5.00;;;1.50;;
79790;SDS011;69278;52.220;5.172;2023-08-12T11:15:34;5.28;;;1.33;;
79790;SDS011;69278;52.220;5.172;2023-08-12T11:18:12;6.30;;;1.47;;
79790;SDS011;69278;52.220;5.172;2023-08-12T11:20:40;6.50;;;1.60;;
79790;SDS011;69278;52.220;5.172;2023-08-12T11:23:07;6.22;;;1.42;;
79790;SDS011;69278;52.220;5.172;2023-08-12T11:25:35;6.10;;;2.10;;
79790;SDS011;69278;52.220;5.172;2023-08-12T11:28:04;4.55;;;1.55;;
79790;SDS011;69278;52.220;5.172;2023-08-12T11:30:31;4.67;;;1.70;;
79790;SDS011;69278;52.220;5.172;2023-08-12T11:32:58;7.03;;;1.80;;
79790;SDS011;69278;52.220;5.172;2023-08-12T11:35:26;5.78;;;1.50;;
79790;SDS011;69278;52.220;5.172;2023-08-12T11:37:54;4.80;;;1.48;;
79790;SDS011;69278;52.220;5.172;2023-08-12T11:40:23;4.68;;;1.30;;
79790;SDS011;69278;52.220;5.172;2023-08-12T11:42:51;4.13;;;1.60;;
79790;SDS011;69278;52.220;5.172;2023-08-12T11:45:19;6.90;;;1.50;;
79790;SDS011;69278;52.220;5.172;2023-08-12T11:47:47;5.97;;;1.58;;
79790;SDS011;69278;52.220;5.172;2023-08-12T11:50:20;3.97;;;1.45;;
79790;SDS011;69278;52.220;5.172;2023-08-12T11:52:48;6.18;;;1.50;;
79790;SDS011;69278;52.220;5.172;2023-08-12T11:55:15;7.67;;;1.80;;
79790;SDS011;69278;52.220;5.172;2023-08-12T11:57:43;4.53;;;1.50;;
79790;SDS011;69278;52.220;5.172;2023-08-12T12:00:10;6.90;;;1.40;;
79790;SDS011;69278;52.220;5.172;2023-08-12T12:02:46;4.72;;;1.33;;
79790;SDS011;69278;52.220;5.172;2023-08-12T12:05:18;4.43;;;1.48;;
79790;SDS011;69278;52.220;5.172;2023-08-12T12:07:50;6.00;;;1.70;;
79790;SDS011;69278;52.220;5.172;2023-08-12T12:10:18;4.93;;;1.70;;
79790;SDS011;69278;52.220;5.172;2023-08-12T12:13:03;5.97;;;1.80;;
79790;SDS011;69278;52.220;5.172;2023-08-12T12:15:31;6.38;;;1.40;;
79790;SDS011;69278;52.220;5.172;2023-08-12T12:17:58;7.13;;;1.70;;
79790;SDS011;69278;52.220;5.172;2023-08-12T12:20:25;7.90;;;1.93;;
79790;SDS011;69278;52.220;5.172;2023-08-12T12:22:53;7.05;;;1.52;;
79790;SDS011;69278;52.220;5.172;2023-08-12T12:25:21;7.80;;;1.80;;
79790;SDS011;69278;52.220;5.172;2023-08-12T12:27:48;4.35;;;1.70;;
79790;SDS011;69278;52.220;5.172;2023-08-12T12:30:14;9.65;;;1.73;;
79790;SDS011;69278;52.220;5.172;2023-08-12T12:32:42;6.83;;;1.87;;
79790;SDS011;69278;52.220;5.172;2023-08-12T12:35:09;4.05;;;1.50;;
79790;SDS011;69278;52.220;5.172;2023-08-12T12:37:36;6.53;;;1.48;;
79790;SDS011;69278;52.220;5.172;2023-08-12T12:40:03;5.70;;;1.60;;
79790;SDS011;69278;52.220;5.172;2023-08-12T12:42:31;6.00;;;1.60;;
79790;SDS011;69278;52.220;5.172;2023-08-12T12:44:58;6.13;;;2.07;;
79790;SDS011;69278;52.220;5.172;2023-08-12T12:47:24;5.07;;;1.58;;
79790;SDS011;69278;52.220;5.172;2023-08-12T12:49:51;6.47;;;1.70;;
79790;SDS011;69278;52.220;5.172;2023-08-12T12:52:17;5.47;;;1.80;;
79790;SDS011;69278;52.220;5.172;2023-08-12T12:54:44;8.02;;;1.92;;
79790;SDS011;69278;52.220;5.172;2023-08-12T12:57:10;6.53;;;1.60;;
79790;SDS011;69278;52.220;5.172;2023-08-12T12:59:36;5.18;;;1.70;;
79790;SDS011;69278;52.220;5.172;2023-08-12T13:02:03;6.82;;;1.60;;
79790;SDS011;69278;52.220;5.172;2023-08-12T13:04:29;4.60;;;1.70;;
79790;SDS011;69278;52.220;5.172;2023-08-12T13:06:56;6.40;;;1.50;;
79790;SDS011;69278;52.220;5.172;2023-08-12T13:09:22;6.50;;;1.60;;
79790;SDS011;69278;52.220;5.172;2023-08-12T13:11:49;6.85;;;1.80;;
79790;SDS011;69278;52.220;5.172;2023-08-12T13:14:15;6.18;;;1.95;;
79790;SDS011;69278;52.220;5.172;2023-08-12T13:16:45;5.18;;;1.70;;
79790;SDS011;69278;52.220;5.172;2023-08-12T13:19:11;5.50;;;1.70;;
79790;SDS011;69278;52.220;5.172;2023-08-12T13:21:38;5.93;;;1.80;;
79790;SDS011;69278;52.220;5.172;2023-08-12T13:24:04;8.95;;;1.70;;
79790;SDS011;69278;52.220;5.172;2023-08-12T13:26:31;3.95;;;1.48;;
79790;SDS011;69278;52.220;5.172;2023-08-12T13:28:58;5.85;;;1.70;;
79790;SDS011;69278;52.220;5.172;2023-08-12T13:31:24;8.07;;;2.05;;
79790;SDS011;69278;52.220;5.172;2023-08-12T13:33:52;6.57;;;1.53;;
79790;SDS011;69278;52.220;5.172;2023-08-12T13:36:18;6.32;;;1.90;;
79790;SDS011;69278;52.220;5.172;2023-08-12T13:38:45;7.50;;;1.58;;
79790;SDS011;69278;52.220;5.172;2023-08-12T13:41:11;6.05;;;1.98;;
79790;SDS011;69278;52.220;5.172;2023-08-12T13:43:37;5.72;;;1.88;;
79790;SDS011;69278;52.220;5.172;2023-08-12T13:46:04;6.57;;;1.83;;
79790;SDS011;69278;52.220;5.172;2023-08-12T13:48:30;4.65;;;1.67;;
79790;SDS011;69278;52.220;5.172;2023-08-12T13:50:57;6.95;;;1.70;;
79790;SDS011;69278;52.220;5.172;2023-08-12T13:53:27;5.32;;;1.58;;
79790;SDS011;69278;52.220;5.172;2023-08-12T13:55:53;6.03;;;1.80;;
79790;SDS011;69278;52.220;5.172;2023-08-12T13:58:19;5.17;;;1.67;;
79790;SDS011;69278;52.220;5.172;2023-08-12T14:00:46;6.88;;;1.70;;
79790;SDS011;69278;52.220;5.172;2023-08-12T14:03:13;4.90;;;1.40;;
79790;SDS011;69278;52.220;5.172;2023-08-12T14:05:41;4.38;;;1.48;;
79790;SDS011;69278;52.220;5.172;2023-08-12T14:08:08;5.85;;;1.88;;
79790;SDS011;69278;52.220;5.172;2023-08-12T14:10:35;3.10;;;1.30;;
79790;SDS011;69278;52.220;5.172;2023-08-12T14:13:01;5.97;;;1.90;;
79790;SDS011;69278;52.220;5.172;2023-08-12T14:15:28;7.82;;;2.15;;
79790;SDS011;69278;52.220;5.172;2023-08-12T14:17:54;6.50;;;1.90;;
79790;SDS011;69278;52.220;5.172;2023-08-12T14:20:21;5.65;;;1.67;;
79790;SDS011;69278;52.220;5.172;2023-08-12T14:22:47;4.80;;;2.00;;
79790;SDS011;69278;52.220;5.172;2023-08-12T14:25:14;6.93;;;2.05;;
79790;SDS011;69278;52.220;5.172;2023-08-12T14:27:40;5.97;;;1.88;;
79790;SDS011;69278;52.220;5.172;2023-08-12T14:30:07;5.63;;;1.98;;
79790;SDS011;69278;52.220;5.172;2023-08-12T14:32:34;7.32;;;1.67;;
79790;SDS011;69278;52.220;5.172;2023-08-12T14:35:01;4.10;;;1.70;;
79790;SDS011;69278;52.220;5.172;2023-08-12T14:37:27;7.80;;;2.00;;
79790;SDS011;69278;52.220;5.172;2023-08-12T14:39:54;9.18;;;2.03;;
79790;SDS011;69278;52.220;5.172;2023-08-12T14:42:21;7.95;;;2.17;;
79790;SDS011;69278;52.220;5.172;2023-08-12T14:44:47;7.85;;;1.90;;
79790;SDS011;69278;52.220;5.172;2023-08-12T14:47:14;6.03;;;1.80;;
79790;SDS011;69278;52.220;5.172;2023-08-12T14:49:41;6.50;;;1.92;;
79790;SDS011;69278;52.220;5.172;2023-08-12T14:52:17;5.57;;;1.77;;